createdAt,value
2017-10-06T00:00:38.334Z,0
2017-10-06T00:01:38.315Z,0
2017-10-06T00:02:37.703Z,0
2017-10-06T00:03:37.970Z,0
2017-10-06T00:04:37.635Z,0
2017-10-06T00:05:38.255Z,0
2017-10-06T00:06:37.889Z,0
2017-10-06T00:07:37.871Z,0
2017-10-06T00:08:37.863Z,0
2017-10-06T00:09:37.204Z,0
2017-10-06T00:10:37.815Z,0
2017-10-06T00:11:38.129Z,0
2017-10-06T00:12:37.791Z,0
2017-10-06T00:13:37.442Z,0
2017-10-06T00:14:38.047Z,0
2017-10-06T00:15:37.999Z,0
2017-10-06T00:16:38.004Z,0
2017-10-06T00:17:37.686Z,0
2017-10-06T00:18:37.341Z,0
2017-10-06T00:19:37.950Z,0
2017-10-06T00:20:37.909Z,0
2017-10-06T00:21:38.061Z,0
2017-10-06T00:22:37.299Z,0
2017-10-06T00:23:37.582Z,0
2017-10-06T00:24:37.835Z,0
2017-10-06T00:25:37.836Z,0
2017-10-06T00:26:37.789Z,0
2017-10-06T00:27:37.780Z,0
2017-10-06T00:28:36.890Z,0
2017-10-06T00:29:37.099Z,0
2017-10-06T00:30:37.151Z,0
2017-10-06T00:31:37.682Z,0
2017-10-06T00:32:37.409Z,0
2017-10-06T00:33:37.020Z,0
2017-10-06T00:34:37.321Z,0
2017-10-06T00:35:36.971Z,0
2017-10-06T00:36:37.299Z,0
2017-10-06T00:37:37.561Z,0
2017-10-06T00:38:36.612Z,0
2017-10-06T00:39:37.525Z,0
2017-10-06T00:40:37.501Z,0
2017-10-06T00:41:37.479Z,0
2017-10-06T00:42:37.456Z,0
2017-10-06T00:43:37.138Z,0
2017-10-06T00:44:37.426Z,0
2017-10-06T00:45:37.072Z,0
2017-10-06T00:46:37.382Z,0
2017-10-06T00:47:36.427Z,0
2017-10-06T00:48:36.707Z,0
2017-10-06T00:49:37.063Z,0
2017-10-06T00:50:36.991Z,0
2017-10-06T00:51:36.688Z,0
2017-10-06T00:52:36.960Z,0
2017-10-06T00:53:36.638Z,0
2017-10-06T00:54:36.948Z,0
2017-10-06T00:55:36.916Z,0
2017-10-06T00:56:36.246Z,0
2017-10-06T00:57:37.168Z,0
2017-10-06T00:58:36.565Z,0
2017-10-06T00:59:37.152Z,0
2017-10-06T01:00:37.090Z,0
2017-10-06T01:01:36.478Z,0
2017-10-06T01:02:36.132Z,0
2017-10-06T01:03:36.082Z,0
2017-10-06T01:04:36.420Z,0
2017-10-06T01:05:36.998Z,0
2017-10-06T01:06:36.980Z,0
2017-10-06T01:07:36.980Z,0
2017-10-06T01:08:36.626Z,0
2017-10-06T01:09:35.992Z,0
2017-10-06T01:10:36.892Z,0
2017-10-06T01:11:36.250Z,0
2017-10-06T01:12:36.552Z,0
2017-10-06T01:13:36.507Z,0
2017-10-06T01:14:36.474Z,0
2017-10-06T01:15:36.485Z,0
2017-10-06T01:16:36.150Z,0
2017-10-06T01:17:36.126Z,0
2017-10-06T01:18:36.417Z,0
2017-10-06T01:19:36.698Z,0
2017-10-06T01:20:36.368Z,0
2017-10-06T01:21:36.669Z,0
2017-10-06T01:22:36.113Z,0
2017-10-06T01:23:35.999Z,0
2017-10-06T01:24:36.372Z,0
2017-10-06T01:25:36.288Z,0
2017-10-06T01:26:36.265Z,0
2017-10-06T01:27:36.327Z,0
2017-10-06T01:28:36.547Z,0
2017-10-06T01:29:36.509Z,0
2017-10-06T01:30:36.197Z,0
2017-10-06T01:31:36.200Z,0
2017-10-06T01:32:35.951Z,0
2017-10-06T01:33:35.832Z,0
2017-10-06T01:34:36.095Z,0
2017-10-06T01:35:36.075Z,0
2017-10-06T01:36:36.072Z,0
2017-10-06T01:37:35.731Z,0
2017-10-06T01:38:36.021Z,0
2017-10-06T01:39:36.002Z,0
2017-10-06T01:40:36.558Z,0
2017-10-06T01:41:35.977Z,0
2017-10-06T01:42:35.961Z,0
2017-10-06T01:43:35.935Z,0
2017-10-06T01:44:36.220Z,0
2017-10-06T01:45:36.205Z,0
2017-10-06T01:46:36.190Z,0
2017-10-06T01:47:35.861Z,0
2017-10-06T01:48:36.151Z,0
2017-10-06T01:49:35.897Z,0
2017-10-06T01:50:36.120Z,0
2017-10-06T01:51:36.094Z,0
2017-10-06T01:52:36.061Z,0
2017-10-06T01:53:35.839Z,0
2017-10-06T01:54:36.052Z,0
2017-10-06T01:55:36.005Z,0
2017-10-06T01:56:35.674Z,0
2017-10-06T01:57:35.757Z,0
2017-10-06T01:58:35.961Z,0
2017-10-06T01:59:35.912Z,0
2017-10-06T02:00:34.672Z,0
2017-10-06T02:01:35.574Z,0
2017-10-06T02:02:35.539Z,0
2017-10-06T02:03:35.849Z,0
2017-10-06T02:04:35.511Z,0
2017-10-06T02:05:35.475Z,0
2017-10-06T02:06:34.834Z,0
2017-10-06T02:07:35.436Z,0
2017-10-06T02:08:35.429Z,0
2017-10-06T02:09:35.078Z,0
2017-10-06T02:10:35.076Z,0
2017-10-06T02:11:35.065Z,0
2017-10-06T02:12:35.341Z,0
2017-10-06T02:13:35.381Z,0
2017-10-06T02:14:35.004Z,0
2017-10-06T02:15:35.610Z,0
2017-10-06T02:16:35.568Z,0
2017-10-06T02:17:35.569Z,0
2017-10-06T02:18:34.905Z,0
2017-10-06T02:19:35.215Z,0
2017-10-06T02:20:34.956Z,0
2017-10-06T02:21:34.850Z,0
2017-10-06T02:22:34.821Z,0
2017-10-06T02:23:35.409Z,0
2017-10-06T02:24:35.091Z,0
2017-10-06T02:25:35.211Z,0
2017-10-06T02:26:35.046Z,0
2017-10-06T02:27:35.345Z,0
2017-10-06T02:28:35.012Z,0
2017-10-06T02:29:35.342Z,0
2017-10-06T02:30:34.952Z,0
2017-10-06T02:31:34.626Z,0
2017-10-06T02:32:34.596Z,0
2017-10-06T02:33:35.219Z,0
2017-10-06T02:34:34.883Z,0
2017-10-06T02:35:35.162Z,0
2017-10-06T02:36:34.580Z,0
2017-10-06T02:37:35.120Z,0
2017-10-06T02:38:34.798Z,0
2017-10-06T02:39:35.103Z,0
2017-10-06T02:40:34.733Z,0
2017-10-06T02:41:34.860Z,0
2017-10-06T02:42:35.026Z,0
2017-10-06T02:43:34.415Z,0
2017-10-06T02:44:34.973Z,0
2017-10-06T02:45:34.680Z,0
2017-10-06T02:46:34.631Z,0
2017-10-06T02:47:34.610Z,0
2017-10-06T02:48:34.903Z,0
2017-10-06T02:49:34.256Z,0
2017-10-06T02:50:33.615Z,0
2017-10-06T02:51:34.520Z,0
2017-10-06T02:52:34.189Z,0
2017-10-06T02:53:34.489Z,0
2017-10-06T02:54:34.160Z,0
2017-10-06T02:55:34.169Z,0
2017-10-06T02:56:34.110Z,0
2017-10-06T02:57:34.100Z,0
2017-10-06T02:58:34.698Z,0
2017-10-06T02:59:34.043Z,0
2017-10-06T03:00:34.092Z,0
2017-10-06T03:01:34.636Z,0
2017-10-06T03:02:34.670Z,0
2017-10-06T03:03:34.604Z,0
2017-10-06T03:04:33.961Z,0
2017-10-06T03:05:34.232Z,0
2017-10-06T03:06:34.220Z,0
2017-10-06T03:07:33.881Z,0
2017-10-06T03:08:34.180Z,0
2017-10-06T03:09:34.160Z,0
2017-10-06T03:10:34.150Z,0
2017-10-06T03:11:34.100Z,0
2017-10-06T03:12:34.131Z,0
2017-10-06T03:13:34.419Z,0
2017-10-06T03:14:33.752Z,0
2017-10-06T03:15:33.737Z,0
2017-10-06T03:16:34.043Z,0
2017-10-06T03:17:33.691Z,0
2017-10-06T03:18:33.683Z,0
2017-10-06T03:19:33.978Z,0
2017-10-06T03:20:33.624Z,0
2017-10-06T03:21:33.595Z,0
2017-10-06T03:22:33.890Z,0
2017-10-06T03:23:33.881Z,0
2017-10-06T03:24:34.162Z,0
2017-10-06T03:25:33.849Z,0
2017-10-06T03:26:33.821Z,0
2017-10-06T03:27:33.486Z,0
2017-10-06T03:28:33.783Z,0
2017-10-06T03:29:33.453Z,0
2017-10-06T03:30:33.724Z,0
2017-10-06T03:31:33.419Z,0
2017-10-06T03:32:33.691Z,0
2017-10-06T03:33:33.684Z,0
2017-10-06T03:34:33.334Z,0
2017-10-06T03:35:33.660Z,0
2017-10-06T03:36:33.599Z,0
2017-10-06T03:37:33.601Z,0
2017-10-06T03:38:33.573Z,0
2017-10-06T03:39:33.546Z,0
2017-10-06T03:40:33.330Z,0
2017-10-06T03:41:33.502Z,0
2017-10-06T03:42:33.800Z,0
2017-10-06T03:43:33.781Z,0
2017-10-06T03:44:33.531Z,0
2017-10-06T03:45:33.746Z,0
2017-10-06T03:46:33.415Z,0
2017-10-06T03:47:33.697Z,0
2017-10-06T03:48:33.697Z,0
2017-10-06T03:49:33.665Z,0
2017-10-06T03:50:33.318Z,0
2017-10-06T03:51:32.731Z,0
2017-10-06T03:52:32.975Z,0
2017-10-06T03:53:33.280Z,0
2017-10-06T03:54:33.571Z,0
2017-10-06T03:55:33.792Z,0
2017-10-06T03:56:33.563Z,0
2017-10-06T03:57:33.513Z,0
2017-10-06T03:58:33.193Z,0
2017-10-06T03:59:33.496Z,0
2017-10-06T04:00:33.541Z,0
2017-10-06T04:01:32.801Z,0
2017-10-06T04:02:33.122Z,0
2017-10-06T04:03:32.439Z,0
2017-10-06T04:04:32.763Z,0
2017-10-06T04:05:32.470Z,0
2017-10-06T04:06:33.091Z,0
2017-10-06T04:07:33.310Z,0
2017-10-06T04:08:32.991Z,0
2017-10-06T04:09:32.624Z,0
2017-10-06T04:10:33.251Z,0
2017-10-06T04:11:32.318Z,0
2017-10-06T04:12:32.872Z,0
2017-10-06T04:13:33.189Z,0
2017-10-06T04:14:32.533Z,0
2017-10-06T04:15:33.127Z,0
2017-10-06T04:16:32.802Z,0
2017-10-06T04:17:33.101Z,0
2017-10-06T04:18:33.097Z,0
2017-10-06T04:19:32.744Z,0
2017-10-06T04:20:32.414Z,0
2017-10-06T04:21:32.680Z,0
2017-10-06T04:22:32.352Z,0
2017-10-06T04:23:32.341Z,0
2017-10-06T04:24:32.634Z,0
2017-10-06T04:25:32.591Z,0
2017-10-06T04:26:33.064Z,0
2017-10-06T04:27:32.623Z,0
2017-10-06T04:28:32.218Z,0
2017-10-06T04:29:32.548Z,0
2017-10-06T04:30:32.252Z,0
2017-10-06T04:31:31.918Z,0
2017-10-06T04:32:32.526Z,0
2017-10-06T04:33:32.456Z,0
2017-10-06T04:34:32.431Z,0
2017-10-06T04:35:32.432Z,0
2017-10-06T04:36:32.366Z,0
2017-10-06T04:37:32.687Z,0
2017-10-06T04:38:32.338Z,0
2017-10-06T04:39:32.334Z,0
2017-10-06T04:40:32.301Z,0
2017-10-06T04:41:32.673Z,0
2017-10-06T04:42:31.960Z,0
2017-10-06T04:43:31.905Z,0
2017-10-06T04:44:32.614Z,0
2017-10-06T04:45:32.299Z,0
2017-10-06T04:46:32.178Z,0
2017-10-06T04:47:32.251Z,0
2017-10-06T04:48:32.188Z,0
2017-10-06T04:49:31.571Z,0
2017-10-06T04:50:32.422Z,0
2017-10-06T04:51:32.488Z,0
2017-10-06T04:52:32.106Z,0
2017-10-06T04:53:31.750Z,0
2017-10-06T04:54:32.386Z,0
2017-10-06T04:55:32.393Z,0
2017-10-06T04:56:31.959Z,0
2017-10-06T04:57:32.001Z,0
2017-10-06T04:58:31.925Z,0
2017-10-06T04:59:31.937Z,0
2017-10-06T05:00:31.551Z,0
2017-10-06T05:01:31.562Z,0
2017-10-06T05:02:32.167Z,0
2017-10-06T05:03:32.248Z,0
2017-10-06T05:04:31.481Z,0
2017-10-06T05:05:31.292Z,0
2017-10-06T05:06:32.063Z,0
2017-10-06T05:07:31.102Z,0
2017-10-06T05:08:31.400Z,0
2017-10-06T05:09:31.728Z,0
2017-10-06T05:10:31.354Z,0
2017-10-06T05:11:31.621Z,0
2017-10-06T05:12:31.651Z,0
2017-10-06T05:13:31.671Z,0
2017-10-06T05:14:31.016Z,0
2017-10-06T05:15:31.635Z,0
2017-10-06T05:16:31.846Z,0
2017-10-06T05:17:31.861Z,0
2017-10-06T05:18:31.197Z,0
2017-10-06T05:19:31.864Z,0
2017-10-06T05:20:31.144Z,0
2017-10-06T05:21:31.501Z,0
2017-10-06T05:22:31.146Z,0
2017-10-06T05:23:31.102Z,0
2017-10-06T05:24:31.750Z,0
2017-10-06T05:25:31.389Z,0
2017-10-06T05:26:31.022Z,0
2017-10-06T05:27:31.635Z,0
2017-10-06T05:28:30.685Z,0
2017-10-06T05:29:31.294Z,0
2017-10-06T05:30:31.372Z,0
2017-10-06T05:31:31.261Z,0
2017-10-06T05:32:30.945Z,0
2017-10-06T05:33:31.262Z,0
2017-10-06T05:34:31.200Z,0
2017-10-06T05:35:31.153Z,0
2017-10-06T05:36:31.281Z,0
2017-10-06T05:37:31.222Z,0
2017-10-06T05:38:31.097Z,0
2017-10-06T05:39:31.076Z,0
2017-10-06T05:40:31.361Z,0
2017-10-06T05:41:31.778Z,0
2017-10-06T05:42:31.421Z,0
2017-10-06T05:43:31.415Z,0
2017-10-06T05:44:31.065Z,0
2017-10-06T05:45:31.365Z,0
2017-10-06T05:46:31.256Z,0
2017-10-06T05:47:31.223Z,5
2017-10-06T05:48:30.951Z,5
2017-10-06T05:49:31.214Z,5
2017-10-06T05:50:31.183Z,5
2017-10-06T05:51:31.205Z,10
2017-10-06T05:52:31.153Z,10
2017-10-06T05:53:31.105Z,10
2017-10-06T05:54:30.790Z,10
2017-10-06T05:55:31.049Z,10
2017-10-06T05:56:30.805Z,10
2017-10-06T05:57:30.712Z,10
2017-10-06T05:58:31.043Z,5
2017-10-06T05:59:30.660Z,5
2017-10-06T06:00:30.697Z,5
2017-10-06T06:01:30.607Z,5
2017-10-06T06:02:30.642Z,10
2017-10-06T06:03:30.281Z,10
2017-10-06T06:04:30.551Z,10
2017-10-06T06:05:30.512Z,10
2017-10-06T06:06:30.814Z,15
2017-10-06T06:07:30.464Z,20
2017-10-06T06:08:29.861Z,20
2017-10-06T06:09:30.761Z,25
2017-10-06T06:10:30.122Z,25
2017-10-06T06:11:30.755Z,30
2017-10-06T06:12:30.091Z,35
2017-10-06T06:13:30.682Z,40
2017-10-06T06:14:30.645Z,40
2017-10-06T06:15:29.991Z,50
2017-10-06T06:16:30.014Z,50
2017-10-06T06:17:30.300Z,60
2017-10-06T06:18:29.935Z,60
2017-10-06T06:19:30.251Z,70
2017-10-06T06:20:30.590Z,80
2017-10-06T06:21:30.191Z,75
2017-10-06T06:22:30.215Z,85
2017-10-06T06:23:30.142Z,165
2017-10-06T06:24:29.807Z,145
2017-10-06T06:25:30.511Z,225
2017-10-06T06:26:30.433Z,120
2017-10-06T06:27:30.128Z,75
2017-10-06T06:28:29.771Z,60
2017-10-06T06:29:30.362Z,45
2017-10-06T06:30:29.431Z,40
2017-10-06T06:31:30.003Z,40
2017-10-06T06:32:29.978Z,45
2017-10-06T06:33:29.985Z,45
2017-10-06T06:34:29.926Z,50
2017-10-06T06:35:29.595Z,60
2017-10-06T06:36:30.195Z,80
2017-10-06T06:37:29.867Z,260
2017-10-06T06:38:28.907Z,305
2017-10-06T06:39:29.525Z,630
2017-10-06T06:40:30.111Z,540
2017-10-06T06:41:30.125Z,315
2017-10-06T06:42:29.775Z,270
2017-10-06T06:43:29.747Z,170
2017-10-06T06:44:29.103Z,140
2017-10-06T06:45:29.180Z,105
2017-10-06T06:46:29.070Z,90
2017-10-06T06:47:30.017Z,70
2017-10-06T06:48:29.998Z,55
2017-10-06T06:49:29.929Z,45
2017-10-06T06:50:29.673Z,45
2017-10-06T06:51:29.911Z,45
2017-10-06T06:52:29.585Z,45
2017-10-06T06:53:28.945Z,40
2017-10-06T06:54:29.545Z,50
2017-10-06T06:55:28.916Z,55
2017-10-06T06:56:29.529Z,60
2017-10-06T06:57:29.797Z,70
2017-10-06T06:58:29.474Z,70
2017-10-06T06:59:29.436Z,80
2017-10-06T07:00:29.419Z,90
2017-10-06T07:01:28.970Z,85
2017-10-06T07:02:28.763Z,90
2017-10-06T07:03:29.660Z,380
2017-10-06T07:04:28.748Z,315
2017-10-06T07:05:29.351Z,150
2017-10-06T07:06:29.309Z,85
2017-10-06T07:07:29.001Z,60
2017-10-06T07:08:29.322Z,45
2017-10-06T07:09:29.307Z,40
2017-10-06T07:10:29.682Z,40
2017-10-06T07:11:29.238Z,40
2017-10-06T07:12:28.882Z,40
2017-10-06T07:13:29.170Z,40
2017-10-06T07:14:29.303Z,35
2017-10-06T07:15:28.831Z,40
2017-10-06T07:16:29.443Z,45
2017-10-06T07:17:28.793Z,45
2017-10-06T07:18:29.061Z,55
2017-10-06T07:19:29.378Z,60
2017-10-06T07:20:29.340Z,65
2017-10-06T07:21:29.305Z,70
2017-10-06T07:22:29.290Z,60
2017-10-06T07:23:29.017Z,40
2017-10-06T07:24:28.981Z,35
2017-10-06T07:25:28.987Z,35
2017-10-06T07:26:28.609Z,40
2017-10-06T07:27:28.913Z,45
2017-10-06T07:28:29.192Z,45
2017-10-06T07:29:28.892Z,45
2017-10-06T07:30:28.903Z,45
2017-10-06T07:31:28.850Z,50
2017-10-06T07:32:28.802Z,50
2017-10-06T07:33:28.789Z,55
2017-10-06T07:34:28.762Z,55
2017-10-06T07:35:28.762Z,55
2017-10-06T07:36:29.052Z,60
2017-10-06T07:37:28.763Z,60
2017-10-06T07:38:28.748Z,60
2017-10-06T07:39:28.972Z,55
2017-10-06T07:40:28.963Z,55
2017-10-06T07:41:28.633Z,65
2017-10-06T07:42:28.954Z,60
2017-10-06T07:43:28.670Z,75
2017-10-06T07:44:28.875Z,85
2017-10-06T07:45:28.578Z,115
2017-10-06T07:46:28.853Z,125
2017-10-06T07:47:28.962Z,160
2017-10-06T07:48:28.831Z,180
2017-10-06T07:49:28.793Z,185
2017-10-06T07:50:28.744Z,215
2017-10-06T07:51:28.101Z,200
2017-10-06T07:52:28.081Z,350
2017-10-06T07:53:28.708Z,165
2017-10-06T07:54:28.696Z,160
2017-10-06T07:55:28.667Z,175
2017-10-06T07:56:28.329Z,195
2017-10-06T07:57:28.321Z,170
2017-10-06T07:58:28.600Z,155
2017-10-06T07:59:28.600Z,135
2017-10-06T08:00:28.252Z,120
2017-10-06T08:01:28.238Z,105
2017-10-06T08:02:28.513Z,90
2017-10-06T08:03:28.511Z,70
2017-10-06T08:04:28.231Z,65
2017-10-06T08:05:27.862Z,60
2017-10-06T08:06:28.151Z,60
2017-10-06T08:07:27.876Z,55
2017-10-06T08:08:28.420Z,50
2017-10-06T08:09:28.104Z,50
2017-10-06T08:10:28.510Z,55
2017-10-06T08:11:27.741Z,65
2017-10-06T08:12:28.334Z,55
2017-10-06T08:13:28.314Z,45
2017-10-06T08:14:27.673Z,35
2017-10-06T08:15:28.028Z,35
2017-10-06T08:16:28.260Z,35
2017-10-06T08:17:28.259Z,35
2017-10-06T08:18:28.252Z,35
2017-10-06T08:19:28.204Z,30
2017-10-06T08:20:27.874Z,30
2017-10-06T08:21:28.182Z,25
2017-10-06T08:22:28.151Z,25
2017-10-06T08:23:27.802Z,30
2017-10-06T08:24:27.493Z,30
2017-10-06T08:25:28.078Z,40
2017-10-06T08:26:28.078Z,65
2017-10-06T08:27:28.071Z,90
2017-10-06T08:28:27.401Z,115
2017-10-06T08:29:28.027Z,140
2017-10-06T08:30:27.411Z,165
2017-10-06T08:31:27.676Z,145
2017-10-06T08:32:27.661Z,145
2017-10-06T08:33:27.622Z,125
2017-10-06T08:34:27.328Z,110
2017-10-06T08:35:27.891Z,100
2017-10-06T08:36:27.626Z,90
2017-10-06T08:37:27.848Z,85
2017-10-06T08:38:27.834Z,90
2017-10-06T08:39:27.501Z,95
2017-10-06T08:40:27.506Z,95
2017-10-06T08:41:27.791Z,95
2017-10-06T08:42:27.752Z,105
2017-10-06T08:43:27.737Z,110
2017-10-06T08:44:27.711Z,105
2017-10-06T08:45:27.711Z,100
2017-10-06T08:46:27.372Z,90
2017-10-06T08:47:27.331Z,85
2017-10-06T08:48:27.382Z,75
2017-10-06T08:49:27.636Z,70
2017-10-06T08:50:27.597Z,75
2017-10-06T08:51:27.284Z,70
2017-10-06T08:52:27.556Z,60
2017-10-06T08:53:27.531Z,60
2017-10-06T08:54:27.504Z,60
2017-10-06T08:55:27.126Z,65
2017-10-06T08:56:27.184Z,65
2017-10-06T08:57:26.514Z,75
2017-10-06T08:58:26.881Z,80
2017-10-06T08:59:27.132Z,80
2017-10-06T09:00:27.159Z,90
2017-10-06T09:01:27.392Z,110
2017-10-06T09:02:27.363Z,145
2017-10-06T09:03:26.764Z,140
2017-10-06T09:04:27.013Z,145
2017-10-06T09:05:27.093Z,160
2017-10-06T09:06:26.346Z,125
2017-10-06T09:07:26.950Z,130
2017-10-06T09:08:26.962Z,110
2017-10-06T09:09:27.244Z,140
2017-10-06T09:10:26.944Z,125
2017-10-06T09:11:26.572Z,110
2017-10-06T09:12:26.541Z,90
2017-10-06T09:13:26.572Z,85
2017-10-06T09:14:26.206Z,80
2017-10-06T09:15:26.901Z,70
2017-10-06T09:16:26.792Z,65
2017-10-06T09:17:26.461Z,55
2017-10-06T09:18:26.763Z,50
2017-10-06T09:19:26.712Z,50
2017-10-06T09:20:26.421Z,45
2017-10-06T09:21:26.994Z,45
2017-10-06T09:22:27.021Z,45
2017-10-06T09:23:26.335Z,45
2017-10-06T09:24:26.634Z,40
2017-10-06T09:25:26.671Z,40
2017-10-06T09:26:26.650Z,35
2017-10-06T09:27:26.571Z,35
2017-10-06T09:28:26.611Z,35
2017-10-06T09:29:26.836Z,40
2017-10-06T09:30:26.244Z,40
2017-10-06T09:31:26.505Z,40
2017-10-06T09:32:26.781Z,40
2017-10-06T09:33:26.442Z,40
2017-10-06T09:34:26.490Z,40
2017-10-06T09:35:26.423Z,45
2017-10-06T09:36:26.513Z,45
2017-10-06T09:37:26.390Z,45
2017-10-06T09:38:26.371Z,45
2017-10-06T09:39:26.672Z,45
2017-10-06T09:40:26.344Z,45
2017-10-06T09:41:26.623Z,45
2017-10-06T09:42:26.282Z,45
2017-10-06T09:43:26.272Z,40
2017-10-06T09:44:26.564Z,40
2017-10-06T09:45:26.377Z,40
2017-10-06T09:46:26.215Z,45
2017-10-06T09:47:26.202Z,45
2017-10-06T09:48:25.865Z,45
2017-10-06T09:49:26.168Z,50
2017-10-06T09:50:26.487Z,50
2017-10-06T09:51:26.423Z,55
2017-10-06T09:52:26.081Z,60
2017-10-06T09:53:26.407Z,65
2017-10-06T09:54:26.406Z,65
2017-10-06T09:55:26.355Z,70
2017-10-06T09:56:26.346Z,70
2017-10-06T09:57:26.082Z,65
2017-10-06T09:58:26.296Z,60
2017-10-06T09:59:26.283Z,55
2017-10-06T10:00:26.263Z,60
2017-10-06T10:01:26.245Z,65
2017-10-06T10:02:25.925Z,70
2017-10-06T10:03:25.888Z,75
2017-10-06T10:04:26.174Z,80
2017-10-06T10:05:25.522Z,80
2017-10-06T10:06:26.123Z,80
2017-10-06T10:07:26.119Z,85
2017-10-06T10:08:26.092Z,80
2017-10-06T10:09:26.073Z,80
2017-10-06T10:10:26.054Z,80
2017-10-06T10:11:25.722Z,80
2017-10-06T10:12:25.712Z,80
2017-10-06T10:13:25.746Z,80
2017-10-06T10:14:25.674Z,80
2017-10-06T10:15:25.986Z,85
2017-10-06T10:16:25.940Z,90
2017-10-06T10:17:24.971Z,95
2017-10-06T10:18:25.901Z,80
2017-10-06T10:19:25.885Z,80
2017-10-06T10:20:24.923Z,80
2017-10-06T10:21:25.852Z,80
2017-10-06T10:22:25.845Z,80
2017-10-06T10:23:25.556Z,70
2017-10-06T10:24:25.463Z,65
2017-10-06T10:25:25.753Z,65
2017-10-06T10:26:25.786Z,65
2017-10-06T10:27:25.413Z,75
2017-10-06T10:28:25.700Z,80
2017-10-06T10:29:25.706Z,105
2017-10-06T10:30:25.053Z,125
2017-10-06T10:31:25.056Z,140
2017-10-06T10:32:25.616Z,155
2017-10-06T10:33:25.293Z,180
2017-10-06T10:34:25.635Z,220
2017-10-06T10:35:25.831Z,365
2017-10-06T10:36:25.541Z,280
2017-10-06T10:37:24.917Z,275
2017-10-06T10:38:25.512Z,255
2017-10-06T10:39:25.183Z,210
2017-10-06T10:40:25.483Z,200
2017-10-06T10:41:25.213Z,205
2017-10-06T10:42:25.139Z,205
2017-10-06T10:43:24.534Z,200
2017-10-06T10:44:25.161Z,190
2017-10-06T10:45:24.735Z,185
2017-10-06T10:46:25.365Z,190
2017-10-06T10:47:25.038Z,200
2017-10-06T10:48:25.334Z,220
2017-10-06T10:49:25.484Z,225
2017-10-06T10:50:25.102Z,365
2017-10-06T10:51:24.967Z,315
2017-10-06T10:52:25.266Z,495
2017-10-06T10:53:24.640Z,410
2017-10-06T10:54:24.964Z,230
2017-10-06T10:55:25.084Z,205
2017-10-06T10:56:24.864Z,210
2017-10-06T10:57:24.856Z,200
2017-10-06T10:58:25.139Z,195
2017-10-06T10:59:25.139Z,190
2017-10-06T11:00:25.134Z,310
2017-10-06T11:01:25.083Z,250
2017-10-06T11:02:25.050Z,205
2017-10-06T11:03:25.066Z,345
2017-10-06T11:04:25.048Z,435
2017-10-06T11:05:24.706Z,385
2017-10-06T11:06:25.028Z,385
2017-10-06T11:07:24.667Z,435
2017-10-06T11:08:24.775Z,300
2017-10-06T11:09:25.179Z,250
2017-10-06T11:10:24.394Z,230
2017-10-06T11:11:24.664Z,215
2017-10-06T11:12:24.709Z,210
2017-10-06T11:13:24.861Z,240
2017-10-06T11:14:24.565Z,270
2017-10-06T11:15:24.550Z,240
2017-10-06T11:16:24.533Z,285
2017-10-06T11:17:24.834Z,305
2017-10-06T11:18:24.829Z,240
2017-10-06T11:19:24.503Z,170
2017-10-06T11:20:24.456Z,170
2017-10-06T11:21:24.922Z,160
2017-10-06T11:22:24.809Z,150
2017-10-06T11:23:24.726Z,145
2017-10-06T11:24:24.699Z,140
2017-10-06T11:25:24.694Z,130
2017-10-06T11:26:24.352Z,115
2017-10-06T11:27:24.867Z,125
2017-10-06T11:28:24.736Z,155
2017-10-06T11:29:23.984Z,180
2017-10-06T11:30:24.389Z,195
2017-10-06T11:31:24.582Z,205
2017-10-06T11:32:24.575Z,310
2017-10-06T11:33:24.231Z,335
2017-10-06T11:34:24.221Z,300
2017-10-06T11:35:24.335Z,285
2017-10-06T11:36:23.886Z,275
2017-10-06T11:37:24.618Z,240
2017-10-06T11:38:24.573Z,200
2017-10-06T11:39:23.974Z,175
2017-10-06T11:40:24.501Z,155
2017-10-06T11:41:24.573Z,140
2017-10-06T11:42:24.097Z,130
2017-10-06T11:43:24.092Z,105
2017-10-06T11:44:24.382Z,90
2017-10-06T11:45:24.056Z,75
2017-10-06T11:46:24.033Z,60
2017-10-06T11:47:24.427Z,50
2017-10-06T11:48:23.988Z,50
2017-10-06T11:49:23.968Z,55
2017-10-06T11:50:23.954Z,60
2017-10-06T11:51:23.939Z,70
2017-10-06T11:52:24.256Z,70
2017-10-06T11:53:24.272Z,65
2017-10-06T11:54:24.256Z,60
2017-10-06T11:55:24.016Z,60
2017-10-06T11:56:24.190Z,60
2017-10-06T11:57:23.933Z,60
2017-10-06T11:58:24.165Z,70
2017-10-06T11:59:24.121Z,80
2017-10-06T12:00:24.103Z,85
2017-10-06T12:01:24.194Z,100
2017-10-06T12:02:24.065Z,100
2017-10-06T12:03:23.778Z,105
2017-10-06T12:04:24.092Z,100
2017-10-06T12:05:24.085Z,105
2017-10-06T12:06:24.068Z,100
2017-10-06T12:07:24.033Z,120
2017-10-06T12:08:23.686Z,140
2017-10-06T12:09:23.999Z,110
2017-10-06T12:10:23.603Z,80
2017-10-06T12:11:23.916Z,70
2017-10-06T12:12:23.931Z,70
2017-10-06T12:13:23.929Z,80
2017-10-06T12:14:23.540Z,85
2017-10-06T12:15:23.591Z,95
2017-10-06T12:16:23.919Z,100
2017-10-06T12:17:23.854Z,165
2017-10-06T12:18:23.784Z,160
2017-10-06T12:19:23.436Z,235
2017-10-06T12:20:23.432Z,365
2017-10-06T12:21:23.434Z,375
2017-10-06T12:22:23.395Z,245
2017-10-06T12:23:23.397Z,235
2017-10-06T12:24:23.710Z,260
2017-10-06T12:25:23.334Z,225
2017-10-06T12:26:23.350Z,175
2017-10-06T12:27:23.684Z,165
2017-10-06T12:28:23.323Z,145
2017-10-06T12:29:23.284Z,130
2017-10-06T12:30:23.660Z,135
2017-10-06T12:31:23.616Z,140
2017-10-06T12:32:23.539Z,130
2017-10-06T12:33:23.545Z,120
2017-10-06T12:34:23.207Z,100
2017-10-06T12:35:23.536Z,110
2017-10-06T12:36:23.586Z,115
2017-10-06T12:37:23.534Z,95
2017-10-06T12:38:23.111Z,75
2017-10-06T12:39:23.586Z,80
2017-10-06T12:40:23.077Z,75
2017-10-06T12:41:23.088Z,70
2017-10-06T12:42:23.066Z,80
2017-10-06T12:43:23.335Z,95
2017-10-06T12:44:22.402Z,95
2017-10-06T12:45:22.715Z,95
2017-10-06T12:46:22.983Z,95
2017-10-06T12:47:22.670Z,95
2017-10-06T12:48:22.640Z,90
2017-10-06T12:49:22.996Z,90
2017-10-06T12:50:22.898Z,225
2017-10-06T12:51:22.573Z,230
2017-10-06T12:52:22.872Z,225
2017-10-06T12:53:23.252Z,205
2017-10-06T12:54:23.171Z,275
2017-10-06T12:55:22.183Z,235
2017-10-06T12:56:23.145Z,180
2017-10-06T12:57:22.783Z,170
2017-10-06T12:58:22.812Z,155
2017-10-06T12:59:23.125Z,140
2017-10-06T13:00:22.761Z,115
2017-10-06T13:01:23.112Z,80
2017-10-06T13:02:22.446Z,45
2017-10-06T13:03:23.031Z,25
2017-10-06T13:04:22.685Z,15
2017-10-06T13:05:22.022Z,20
2017-10-06T13:06:22.785Z,20
2017-10-06T13:07:22.636Z,30
2017-10-06T13:08:22.989Z,30
2017-10-06T13:09:22.290Z,30
2017-10-06T13:10:22.936Z,30
2017-10-06T13:11:22.896Z,35
2017-10-06T13:12:22.522Z,35
2017-10-06T13:13:22.529Z,40
2017-10-06T13:14:22.869Z,45
2017-10-06T13:15:22.809Z,45
2017-10-06T13:16:22.834Z,50
2017-10-06T13:17:22.444Z,60
2017-10-06T13:18:22.746Z,60
2017-10-06T13:19:22.420Z,65
2017-10-06T13:20:22.922Z,75
2017-10-06T13:21:22.102Z,90
2017-10-06T13:22:22.682Z,135
2017-10-06T13:23:21.735Z,115
2017-10-06T13:24:22.734Z,120
2017-10-06T13:25:22.300Z,230
2017-10-06T13:26:22.267Z,130
2017-10-06T13:27:21.973Z,130
2017-10-06T13:28:22.556Z,195
2017-10-06T13:29:22.527Z,225
2017-10-06T13:30:22.554Z,235
2017-10-06T13:31:21.901Z,230
2017-10-06T13:32:22.194Z,220
2017-10-06T13:33:22.480Z,210
2017-10-06T13:34:22.457Z,210
2017-10-06T13:35:21.963Z,215
2017-10-06T13:36:22.421Z,205
2017-10-06T13:37:22.451Z,205
2017-10-06T13:38:22.073Z,205
2017-10-06T13:39:22.368Z,205
2017-10-06T13:40:22.390Z,205
2017-10-06T13:41:22.369Z,205
2017-10-06T13:42:22.026Z,200
2017-10-06T13:43:22.342Z,200
2017-10-06T13:44:21.963Z,200
2017-10-06T13:45:21.665Z,200
2017-10-06T13:46:22.355Z,200
2017-10-06T13:47:22.230Z,200
2017-10-06T13:48:22.241Z,200
2017-10-06T13:49:22.072Z,200
2017-10-06T13:50:21.996Z,195
2017-10-06T13:51:22.178Z,195
2017-10-06T13:52:22.181Z,200
2017-10-06T13:53:22.180Z,195
2017-10-06T13:54:21.801Z,200
2017-10-06T13:55:21.798Z,205
2017-10-06T13:56:21.802Z,205
2017-10-06T13:57:21.793Z,115
2017-10-06T13:58:21.744Z,170
2017-10-06T13:59:21.765Z,100
2017-10-06T14:00:21.701Z,95
2017-10-06T14:01:22.011Z,95
2017-10-06T14:02:22.022Z,105
2017-10-06T14:03:21.461Z,120
2017-10-06T14:04:21.666Z,130
2017-10-06T14:05:21.955Z,145
2017-10-06T14:06:21.693Z,125
2017-10-06T14:07:21.973Z,115
2017-10-06T14:08:21.653Z,110
2017-10-06T14:09:21.565Z,110
2017-10-06T14:10:21.581Z,95
2017-10-06T14:11:21.622Z,90
2017-10-06T14:12:21.553Z,85
2017-10-06T14:13:21.830Z,80
2017-10-06T14:14:21.793Z,80
2017-10-06T14:15:21.487Z,65
2017-10-06T14:16:21.785Z,60
2017-10-06T14:17:21.761Z,55
2017-10-06T14:18:21.483Z,45
2017-10-06T14:19:21.737Z,55
2017-10-06T14:20:21.703Z,65